Time;durP1;ratioP1;P1;durP2;ratioP2;P2;SDS_P1;SDS_P2;PMS_P1;PMS_P2;Temp;Humidity;BMP_temperature;BMP_pressure;BME280_temperature;BME280_humidity;BME280_pressure;Samples;Min_cycle;Max_cycle;Signal;HPM_P1;HPM_P2
2022/09/10 05:03:21;;;;;;;2.53;0.50;;;14.90;99.90;;;;;;6205206;23;20017;-72
2022/09/10 05:05:48;;;;;;;3.35;0.43;;;15.00;99.90;;;;;;6198423;23;20290;-72
2022/09/10 05:08:14;;;;;;;4.82;0.80;;;15.00;99.90;;;;;;6197828;23;20063;-72
2022/09/10 05:10:48;;;;;;;2.92;0.45;;;15.10;99.90;;;;;;6198388;23;20028;-74
2022/09/10 05:13:14;;;;;;;1.40;0.50;;;15.10;99.90;;;;;;6197985;23;20005;-72
2022/09/10 05:15:40;;;;;;;2.00;0.50;;;15.10;99.90;;;;;;6197768;23;20295;-71
2022/09/10 05:18:06;;;;;;;1.98;0.50;;;15.10;99.90;;;;;;6197947;23;20047;-72
2022/09/10 05:20:35;;;;;;;2.33;0.50;;;15.10;99.90;;;;;;6197402;23;20314;-72
2022/09/10 05:23:01;;;;;;;1.50;0.40;;;15.10;99.90;;;;;;6224237;23;20047;-73
2022/09/10 05:25:27;;;;;;;3.75;0.50;;;15.10;99.90;;;;;;6197809;23;20005;-72
2022/09/10 05:27:54;;;;;;;1.75;0.40;;;15.10;99.90;;;;;;6198131;23;20345;-72
2022/09/10 05:30:21;;;;;;;1.80;0.40;;;15.20;99.90;;;;;;6197231;23;20008;-72
2022/09/10 05:32:47;;;;;;;2.08;0.43;;;15.20;99.90;;;;;;6197631;23;20008;-72
2022/09/10 05:35:14;;;;;;;2.00;0.30;;;15.20;99.90;;;;;;6197363;23;20298;-72
2022/09/10 05:37:42;;;;;;;1.08;0.40;;;15.20;99.90;;;;;;6198134;23;20167;-72
2022/09/10 05:40:13;;;;;;;3.30;0.50;;;15.30;99.90;;;;;;6198156;23;20004;-72
2022/09/10 05:42:38;;;;;;;1.85;0.40;;;15.40;99.90;;;;;;6197425;23;20027;-71
2022/09/10 05:45:05;;;;;;;1.75;0.50;;;15.40;99.90;;;;;;6224873;23;19992;-72
2022/09/10 05:47:33;;;;;;;2.10;0.52;;;15.30;99.90;;;;;;6197360;23;20214;-71
2022/09/10 05:49:59;;;;;;;1.17;0.52;;;15.30;99.90;;;;;;6198032;23;20173;-71
2022/09/10 05:52:26;;;;;;;2.08;0.40;;;15.40;99.90;;;;;;6196684;23;20004;-71
2022/09/10 05:54:55;;;;;;;1.85;0.55;;;15.40;99.90;;;;;;6197465;23;20012;-71
2022/09/10 05:57:21;;;;;;;2.45;0.55;;;15.40;99.90;;;;;;6197000;23;20107;-71
2022/09/10 05:59:47;;;;;;;1.30;0.57;;;15.40;99.90;;;;;;6197637;23;20020;-71
2022/09/10 06:02:16;;;;;;;2.22;0.50;;;15.30;99.90;;;;;;6196686;23;20012;-71
2022/09/10 06:04:42;;;;;;;3.45;0.40;;;15.40;99.90;;;;;;6198303;23;20283;-72
2022/09/10 06:07:08;;;;;;;1.30;0.40;;;15.40;99.90;;;;;;6197956;23;20019;-72
2022/09/10 06:09:34;;;;;;;1.50;0.47;;;15.50;99.90;;;;;;6197473;23;20005;-72
2022/09/10 06:12:22;;;;;;;;;;;15.50;99.90;;;;;;6223792;23;20278;-72
2022/09/10 06:14:48;;;;;;;2.70;0.40;;;15.60;99.90;;;;;;6172827;23;19914;-72
2022/09/10 06:17:18;;;;;;;1.90;0.60;;;15.60;99.90;;;;;;6196709;23;20056;-73
2022/09/10 06:19:46;;;;;;;1.85;0.28;;;15.60;99.90;;;;;;6197794;23;20028;-72
2022/09/10 06:22:15;;;;;;;2.28;0.57;;;15.60;99.90;;;;;;6172697;23;20301;-73
2022/09/10 06:24:49;;;;;;;1.00;0.28;;;15.60;99.90;;;;;;6198131;23;20008;-72
2022/09/10 06:27:16;;;;;;;3.25;0.47;;;15.70;99.90;;;;;;6197339;23;20005;-74
2022/09/10 06:29:42;;;;;;;2.17;0.38;;;15.80;99.90;;;;;;6197924;23;20027;-71
2022/09/10 06:32:09;;;;;;;1.73;0.40;;;15.90;99.90;;;;;;6196750;23;20020;-71
2022/09/10 06:34:35;;;;;;;1.98;0.65;;;15.90;99.90;;;;;;6172488;23;20304;-71
2022/09/10 06:37:03;;;;;;;2.70;0.93;;;16.10;99.90;;;;;;6197635;23;20004;-72
2022/09/10 06:39:29;;;;;;;1.27;0.43;;;16.10;99.90;;;;;;6196993;23;20080;-72
2022/09/10 06:41:58;;;;;;;2.15;0.55;;;16.10;99.90;;;;;;6197795;23;20020;-72
2022/09/10 06:44:51;;;;;;;1.33;0.40;;;16.20;99.90;;;;;;6187278;23;20012;-72
2022/09/10 06:47:46;;;;;;;1.27;0.22;;;16.40;99.90;;;;;;6207476;23;20009;-73
2022/09/10 06:50:12;;;;;;;2.00;0.32;;;16.50;99.90;;;;;;6198370;23;20196;-73
2022/09/10 06:52:40;;;;;;;0.93;0.20;;;16.60;99.90;;;;;;6196767;23;20055;-73
2022/09/10 06:55:09;;;;;;;1.58;0.50;;;16.70;99.90;;;;;;6197464;23;20012;-73
2022/09/10 06:57:41;;;;;;;1.15;0.30;;;16.90;99.90;;;;;;6197847;23;20011;-73
2022/09/10 07:00:08;;;;;;;1.10;0.40;;;16.90;99.90;;;;;;6197680;23;20011;-73
2022/09/10 07:02:35;;;;;;;1.48;0.30;;;17.00;99.90;;;;;;6191345;23;20009;-72
2022/09/10 07:05:01;;;;;;;1.40;0.38;;;17.20;99.90;;;;;;6192746;23;20286;-73
2022/09/10 07:07:31;;;;;;;1.80;0.45;;;17.20;99.90;;;;;;6192225;23;20009;-73
2022/09/10 07:09:57;;;;;;;1.60;0.32;;;17.20;99.90;;;;;;6192915;23;20000;-73
2022/09/10 07:12:24;;;;;;;1.90;0.40;;;17.20;99.90;;;;;;6192564;23;20282;-73
2022/09/10 07:14:49;;;;;;;2.63;0.30;;;17.30;99.90;;;;;;6191958;23;20060;-73
2022/09/10 07:17:16;;;;;;;1.55;0.20;;;17.40;99.90;;;;;;6193175;23;20005;-71
2022/09/10 07:19:42;;;;;;;2.42;0.20;;;17.50;99.90;;;;;;6195249;23;20340;-72
2022/09/10 07:22:14;;;;;;;2.28;0.40;;;17.40;99.90;;;;;;6171465;23;20005;-73
2022/09/10 07:24:40;;;;;;;1.55;0.30;;;17.60;99.90;;;;;;6195126;23;20005;-72
2022/09/10 07:27:13;;;;;;;1.38;0.35;;;17.50;99.90;;;;;;6194557;23;20051;-76
2022/09/10 07:29:41;;;;;;;2.67;0.65;;;17.40;99.90;;;;;;6169912;23;20008;-74
2022/09/10 07:32:11;;;;;;;2.47;0.40;;;17.30;99.90;;;;;;6192493;23;19993;-73
2022/09/10 07:34:37;;;;;;;2.65;0.40;;;17.50;99.90;;;;;;6191112;23;20101;-73
2022/09/10 07:37:04;;;;;;;2.30;0.40;;;17.40;99.90;;;;;;6193410;23;20028;-74
2022/09/10 07:39:30;;;;;;;1.85;0.40;;;17.40;99.90;;;;;;6193158;23;20005;-73
2022/09/10 07:41:59;;;;;;;2.05;0.40;;;17.60;99.90;;;;;;6194211;23;20327;-72
2022/09/10 07:44:28;;;;;;;2.45;0.32;;;17.70;99.90;;;;;;6168772;23;20009;-73
2022/09/10 07:46:58;;;;;;;2.65;0.47;;;17.60;99.90;;;;;;6193889;23;20291;-75
2022/09/10 07:49:26;;;;;;;1.50;0.30;;;17.70;99.90;;;;;;6193464;23;20016;-73
2022/09/10 07:51:55;;;;;;;0.98;0.30;;;17.80;99.90;;;;;;6169670;23;20011;-73
2022/09/10 07:54:44;;;;;;;1.10;0.30;;;17.80;99.90;;;;;;6168794;23;20032;-77
2022/09/10 07:57:10;;;;;;;1.52;0.30;;;18.00;99.90;;;;;;6194259;23;20051;-75
2022/09/10 07:59:36;;;;;;;1.05;0.40;;;17.80;99.90;;;;;;6168723;23;19997;-77
2022/09/10 08:02:05;;;;;;;1.83;0.30;;;17.90;99.90;;;;;;6193038;23;20060;-76
2022/09/10 08:04:33;;;;;;;3.85;0.70;;;18.00;99.90;;;;;;6192757;23;20009;-75
2022/09/10 08:06:59;;;;;;;1.70;0.25;;;18.10;99.90;;;;;;6192938;23;20008;-75
2022/09/10 08:09:26;;;;;;;2.85;0.40;;;18.30;99.90;;;;;;6192433;23;20008;-75
2022/09/10 08:11:53;;;;;;;1.35;0.20;;;18.50;99.90;;;;;;6193307;23;20032;-74
2022/09/10 08:14:22;;;;;;;1.40;0.30;;;18.80;99.90;;;;;;6191792;23;20079;-76
2022/09/10 08:16:51;;;;;;;3.90;0.45;;;18.80;99.90;;;;;;6168453;23;20028;-75
2022/09/10 08:19:18;;;;;;;1.45;0.20;;;19.00;99.90;;;;;;6168042;23;20044;-76
2022/09/10 08:21:46;;;;;;;1.02;0.20;;;18.90;99.90;;;;;;6193396;23;20008;-77
2022/09/10 08:24:17;;;;;;;2.38;0.52;;;18.70;99.90;;;;;;6193233;23;20000;-76
2022/09/10 08:26:46;;;;;;;1.65;0.30;;;18.70;99.90;;;;;;6194374;23;20001;-76
2022/09/10 08:29:12;;;;;;;1.42;0.20;;;18.90;99.90;;;;;;6193766;23;20341;-75
2022/09/10 08:31:38;;;;;;;1.15;0.22;;;19.10;99.90;;;;;;6193569;23;20008;-75
2022/09/10 08:34:11;;;;;;;2.50;0.55;;;19.10;99.90;;;;;;6194454;23;20137;-75
2022/09/10 08:36:38;;;;;;;0.82;0.20;;;19.20;99.90;;;;;;6201493;23;20051;-75
2022/09/10 08:39:06;;;;;;;2.53;0.20;;;19.20;99.90;;;;;;6198979;23;20066;-75
2022/09/10 08:41:37;;;;;;;2.20;0.47;;;19.40;99.90;;;;;;6198339;23;20007;-79
2022/09/10 08:44:22;;;;;;;1.50;0.40;;;19.50;99.90;;;;;;6223928;23;20214;-76
2022/09/10 08:47:00;;;;;;;1.27;0.38;;;19.70;99.90;;;;;;6225518;23;20055;-77
2022/09/10 08:49:43;;;;;;;1.75;0.20;;;19.90;99.80;;;;;;6223102;23;20290;-78
2022/09/10 08:52:32;;;;;;;2.80;0.43;;;20.00;99.30;;;;;;6225290;23;20151;-76
2022/09/10 08:55:17;;;;;;;2.20;0.30;;;19.90;99.00;;;;;;6223688;23;20015;-75
2022/09/10 08:58:19;;;;;;;2.55;0.52;;;20.00;99.50;;;;;;6220952;23;20005;-77
2022/09/10 09:00:52;;;;;;;2.08;0.30;;;20.10;98.20;;;;;;6196956;23;20005;-76
2022/09/10 09:03:31;;;;;;;2.88;0.40;;;20.10;98.40;;;;;;6223164;23;20017;-76
2022/09/10 09:06:01;;;;;;;1.20;0.28;;;20.10;97.90;;;;;;6223569;23;20035;-73
2022/09/10 09:08:47;;;;;;;3.38;0.47;;;20.20;97.30;;;;;;6199199;23;20258;-75
2022/09/10 09:11:20;;;;;;;2.00;0.25;;;20.40;97.50;;;;;;6199120;23;20005;-74
2022/09/10 09:13:53;;;;;;;2.25;0.40;;;20.60;96.20;;;;;;6223947;23;20061;-74
2022/09/10 09:16:31;;;;;;;3.13;0.40;;;20.60;95.60;;;;;;6223558;23;20313;-75
2022/09/10 09:19:31;;;;;;;2.60;0.43;;;20.60;95.80;;;;;;6223553;23;20005;-76
2022/09/10 09:22:14;;;;;;;2.70;0.30;;;20.80;95.10;;;;;;6198420;23;20032;-74
2022/09/10 09:24:59;;;;;;;1.83;0.45;;;20.70;94.60;;;;;;6223152;23;20009;-73
2022/09/10 09:27:32;;;;;;;1.60;0.60;;;20.40;94.30;;;;;;6223477;23;20028;-77
2022/09/10 09:30:05;;;;;;;3.00;0.40;;;20.40;94.10;;;;;;6223563;23;20005;-75
2022/09/10 09:32:39;;;;;;;3.70;0.60;;;20.30;93.60;;;;;;6222951;23;20076;-76
2022/09/10 09:35:24;;;;;;;2.42;0.32;;;20.40;93.60;;;;;;6223206;23;20024;-76
2022/09/10 09:38:06;;;;;;;1.42;0.30;;;20.40;93.40;;;;;;6223094;23;20008;-74
2022/09/10 09:40:41;;;;;;;3.80;0.55;;;20.60;92.80;;;;;;6222829;23;20008;-74
2022/09/10 09:43:22;;;;;;;3.40;0.40;;;20.70;92.90;;;;;;6198139;23;20067;-74
2022/09/10 09:45:52;;;;;;;3.08;0.60;;;20.80;92.00;;;;;;6222499;23;20009;-75
2022/09/10 09:48:19;;;;;;;1.00;0.25;;;20.70;92.40;;;;;;6223123;23;20071;-74
2022/09/10 09:50:48;;;;;;;2.63;0.70;;;20.80;92.40;;;;;;6222954;23;19992;-72
2022/09/10 09:53:24;;;;;;;1.90;0.38;;;20.60;92.10;;;;;;6224712;23;20056;-75
2022/09/10 09:55:53;;;;;;;2.05;0.50;;;20.50;92.50;;;;;;6222757;23;20017;-72
2022/09/10 09:58:25;;;;;;;1.33;0.22;;;20.50;92.20;;;;;;6224188;23;20279;-74
2022/09/10 10:01:05;;;;;;;2.25;0.30;;;20.30;92.20;;;;;;6223745;23;20001;-73
2022/09/10 10:03:50;;;;;;;2.65;0.30;;;20.00;92.60;;;;;;6223995;23;20024;-73
2022/09/10 10:06:23;;;;;;;2.88;0.30;;;19.80;92.80;;;;;;6224333;23;20005;-75
2022/09/10 10:09:14;;;;;;;1.98;0.28;;;19.80;93.00;;;;;;6223252;23;20000;-76
2022/09/10 10:12:01;;;;;;;2.13;0.40;;;20.00;92.90;;;;;;6223768;23;20336;-73
2022/09/10 10:14:29;;;;;;;1.95;0.30;;;20.10;92.50;;;;;;6223995;23;20015;-75
2022/09/10 10:16:56;;;;;;;3.20;0.50;;;20.10;92.70;;;;;;6224204;23;20000;-74
2022/09/10 10:19:27;;;;;;;2.95;0.40;;;20.00;92.80;;;;;;6222844;23;20175;-75
2022/09/10 10:21:53;;;;;;;3.58;0.47;;;20.00;92.90;;;;;;6219255;23;20012;-75
2022/09/10 10:24:32;;;;;;;2.30;1.00;;;19.90;93.00;;;;;;6223223;23;20039;-76
2022/09/10 10:26:59;;;;;;;6.50;1.10;;;20.00;93.20;;;;;;6223366;23;20001;-75
2022/09/10 10:29:26;;;;;;;2.88;0.40;;;20.30;93.20;;;;;;6223763;23;20000;-74
2022/09/10 10:31:53;;;;;;;2.67;0.40;;;20.60;92.40;;;;;;6196265;23;20027;-76
2022/09/10 10:34:56;;;;;;;3.38;0.50;;;20.90;92.10;;;;;;6223698;23;20036;-74
2022/09/10 10:37:43;;;;;;;3.15;0.55;;;21.10;91.30;;;;;;6132154;23;20036;-75
2022/09/10 10:40:35;;;;;;;2.70;0.63;;;21.40;91.10;;;;;;6220248;23;20028;-75
2022/09/10 10:43:27;;;;;;;2.65;0.45;;;21.50;90.70;;;;;;6197763;23;20229;-75
2022/09/10 10:46:08;;;;;;;1.70;0.35;;;21.40;90.70;;;;;;6222841;23;20286;-71
2022/09/10 10:48:59;;;;;;;2.35;0.40;;;21.20;90.50;;;;;;6222696;23;20004;-73
2022/09/10 10:51:41;;;;;;;2.35;0.30;;;21.20;90.80;;;;;;6224388;23;20333;-75
2022/09/10 10:54:52;;;;;;;1.75;0.35;;;21.20;90.70;;;;;;6223537;23;20070;-73
2022/09/10 10:57:40;;;;;;;1.63;0.32;;;21.50;90.50;;;;;;6132648;23;20010;-75
2022/09/10 11:00:13;;;;;;;0.93;0.23;;;21.60;90.10;;;;;;6132300;23;20010;-75
2022/09/10 11:02:51;;;;;;;1.80;0.45;;;21.80;90.00;;;;;;6131231;23;20113;-73
2022/09/10 11:05:37;;;;;;;2.13;0.28;;;22.30;88.80;;;;;;6132035;23;20121;-75
2022/09/10 11:08:32;;;;;;;1.73;0.38;;;22.60;90.60;;;;;;6132122;23;20395;-73
2022/09/10 11:11:13;;;;;;;2.00;0.50;;;22.50;91.00;;;;;;6118497;23;20026;-74
2022/09/10 11:13:51;;;;;;;6.00;0.80;;;22.20;91.10;;;;;;6131611;23;20049;-76
2022/09/10 11:16:32;;;;;;;1.95;0.43;;;22.00;91.20;;;;;;6132401;23;20006;-76
2022/09/10 11:19:34;;;;;;;2.08;0.30;;;21.80;88.70;;;;;;6132129;23;20013;-75
2022/09/10 11:22:14;;;;;;;2.78;0.43;;;21.40;89.00;;;;;;6131005;23;20077;-76
2022/09/10 11:24:44;;;;;;;0.93;0.20;;;21.30;91.20;;;;;;6131653;23;20199;-75
2022/09/10 11:27:41;;;;;;;3.47;0.40;;;21.20;89.50;;;;;;6132320;23;20261;-76
2022/09/10 11:30:15;;;;;;;2.70;0.47;;;21.50;91.10;;;;;;6132239;23;20070;-76
2022/09/10 11:33:08;;;;;;;3.65;0.50;;;21.60;91.70;;;;;;6131344;23;20016;-76
2022/09/10 11:35:48;;;;;;;1.48;0.40;;;22.00;90.80;;;;;;6224195;23;20017;-73
2022/09/10 11:38:57;;;;;;;2.20;0.43;;;22.20;90.60;;;;;;6223171;23;20005;-75
2022/09/10 11:41:41;;;;;;;1.77;0.60;;;22.20;90.90;;;;;;6172524;23;20023;-72
2022/09/10 11:44:41;;;;;;;2.30;0.40;;;22.00;90.90;;;;;;6223422;23;20312;-75
2022/09/10 11:47:20;;;;;;;3.15;0.40;;;21.70;91.10;;;;;;6223597;23;20075;-75
2022/09/10 11:49:52;;;;;;;3.17;0.43;;;21.50;89.50;;;;;;6221294;23;20013;-74
2022/09/10 11:52:20;;;;;;;3.05;0.50;;;21.00;86.10;;;;;;6196869;23;20298;-73
2022/09/10 11:54:46;;;;;;;2.60;0.40;;;20.70;87.00;;;;;;6223683;23;19997;-73
2022/09/10 11:57:30;;;;;;;3.03;0.50;;;20.60;87.50;;;;;;6197316;23;20225;-75
2022/09/10 12:00:15;;;;;;;1.80;0.50;;;20.40;88.40;;;;;;6196232;23;20038;-75
2022/09/10 12:03:19;;;;;;;2.13;0.40;;;20.30;90.60;;;;;;6222407;23;20012;-75
2022/09/10 12:06:12;;;;;;;1.90;0.40;;;20.30;92.00;;;;;;6224233;23;20004;-75
2022/09/10 12:08:48;;;;;;;1.35;0.40;;;20.40;92.70;;;;;;6225158;23;20056;-75
2022/09/10 12:11:37;;;;;;;2.10;0.50;;;20.70;92.40;;;;;;6224904;23;20001;-75
2022/09/10 12:14:23;;;;;;;1.63;0.50;;;21.30;91.90;;;;;;6225195;23;20100;-72
2022/09/10 12:17:02;;;;;;;2.25;0.60;;;23.00;89.70;;;;;;6225281;23;20008;-74
2022/09/10 12:19:39;;;;;;;;;;;23.50;86.50;;;;;;6225777;23;20005;-73
2022/09/10 12:22:08;;;;;;;1.60;0.30;;;23.20;86.10;;;;;;6225160;23;19899;-73
2022/09/10 12:24:38;;;;;;;3.42;0.57;;;22.70;87.30;;;;;;6198725;23;20011;-73
2022/09/10 12:27:05;;;;;;;2.45;0.55;;;22.60;88.70;;;;;;6198749;23;20008;-74
2022/09/10 12:29:36;;;;;;;1.65;0.50;;;22.50;89.60;;;;;;6224941;23;20022;-73
2022/09/10 12:32:11;;;;;;;2.28;0.60;;;22.30;88.90;;;;;;6224827;23;20273;-74
2022/09/10 12:34:39;;;;;;;3.05;0.70;;;22.50;87.90;;;;;;6224782;23;20063;-74
2022/09/10 12:37:05;;;;;;;2.80;0.43;;;22.40;88.00;;;;;;6224259;23;20031;-74
2022/09/10 12:39:30;;;;;;;3.42;0.50;;;22.40;87.30;;;;;;6225067;23;20001;-75
2022/09/10 12:42:02;;;;;;;2.42;0.50;;;22.50;86.90;;;;;;6224244;23;20000;-73
2022/09/10 12:44:33;;;;;;;3.17;0.60;;;22.70;86.10;;;;;;6225436;23;20067;-72
2022/09/10 12:47:15;;;;;;;3.17;0.47;;;23.00;85.80;;;;;;6198642;23;20000;-73
2022/09/10 12:50:11;;;;;;;2.53;0.50;;;23.10;83.50;;;;;;6172650;23;20008;-74
2022/09/10 12:52:56;;;;;;;3.75;0.50;;;22.80;84.00;;;;;;6132782;23;20138;-72
2022/09/10 12:55:44;;;;;;;2.40;0.40;;;22.80;82.60;;;;;;6224666;23;20035;-76
2022/09/10 12:58:46;;;;;;;2.47;0.50;;;22.50;83.40;;;;;;6224534;23;20218;-75
2022/09/10 13:01:40;;;;;;;4.25;0.80;;;22.20;83.80;;;;;;6198046;23;20016;-76
2022/09/10 13:04:24;;;;;;;3.90;0.32;;;21.90;83.90;;;;;;6221705;23;20202;-76
2022/09/10 13:06:53;;;;;;;1.17;0.30;;;21.50;83.00;;;;;;6224413;23;20004;-73
2022/09/10 13:09:30;;;;;;;3.50;0.50;;;21.20;84.10;;;;;;6224876;23;20005;-73
2022/09/10 13:12:03;;;;;;;1.33;0.30;;;21.20;84.20;;;;;;6223324;23;20004;-73
2022/09/10 13:14:38;;;;;;;1.10;0.32;;;21.20;83.90;;;;;;6197963;23;20008;-74
2022/09/10 13:17:04;;;;;;;3.20;0.32;;;21.20;83.00;;;;;;6224466;23;20004;-76
2022/09/10 13:19:30;;;;;;;1.80;0.40;;;21.50;82.60;;;;;;6198417;23;20008;-73
2022/09/10 13:21:58;;;;;;;1.45;0.28;;;21.80;81.90;;;;;;6172653;23;20011;-72
2022/09/10 13:24:30;;;;;;;;;;;22.20;80.20;;;;;;6225266;23;20004;-73
2022/09/10 13:27:02;;;;;;;2.65;0.40;;;22.40;78.90;;;;;;6196997;23;19899;-73
2022/09/10 13:29:35;;;;;;;1.98;0.40;;;22.40;79.20;;;;;;6173495;23;20047;-73
2022/09/10 13:32:33;;;;;;;4.22;0.57;;;22.40;79.30;;;;;;6172895;23;20038;-72
2022/09/10 13:35:50;;;;;;;2.13;0.63;;;22.10;79.90;;;;;;6173039;23;20012;-73
2022/09/10 13:38:46;;;;;;;2.05;0.30;;;22.00;80.80;;;;;;6163825;23;20063;-73
2022/09/10 13:42:03;;;;;;;1.17;0.22;;;22.00;80.70;;;;;;6224483;23;20063;-73
2022/09/10 13:44:51;;;;;;;2.93;0.40;;;22.00;80.80;;;;;;6224533;23;20011;-73
2022/09/10 13:47:26;;;;;;;2.60;0.68;;;22.00;81.00;;;;;;6173604;23;20419;-73
2022/09/10 13:50:01;;;;;;;5.03;0.90;;;22.00;81.20;;;;;;6223803;23;20001;-73
2022/09/10 13:52:32;;;;;;;3.40;0.40;;;21.80;81.80;;;;;;6223810;23;20039;-73
2022/09/10 13:54:59;;;;;;;2.85;0.50;;;21.60;82.00;;;;;;6223318;23;20023;-73
2022/09/10 13:57:30;;;;;;;2.97;0.50;;;21.50;82.60;;;;;;6197878;23;20005;-72
2022/09/10 14:00:23;;;;;;;2.28;0.50;;;21.30;83.10;;;;;;6223612;23;20190;-73
2022/09/10 14:02:55;;;;;;;1.83;0.40;;;21.20;82.90;;;;;;6185078;23;20080;-74
2022/09/10 14:05:21;;;;;;;3.20;0.90;;;21.00;83.70;;;;;;6194613;23;20005;-73
2022/09/10 14:07:50;;;;;;;1.25;0.30;;;20.90;84.40;;;;;;6193311;23;20024;-74
2022/09/10 14:10:17;;;;;;;;;;;20.80;85.00;;;;;;6194958;23;20001;-73
2022/09/10 14:12:43;;;;;;;2.20;0.47;;;20.70;90.50;;;;;;6193838;23;19904;-73
2022/09/10 14:15:15;;;;;;;1.95;0.45;;;20.40;90.70;;;;;;6193050;23;20033;-74
2022/09/10 14:17:49;;;;;;;3.67;0.43;;;19.70;93.80;;;;;;6194186;23;20009;-73
2022/09/10 14:20:23;;;;;;;2.60;0.68;;;18.90;95.20;;;;;;6192780;23;20032;-72
2022/09/10 14:23:13;;;;;;;2.22;0.40;;;18.40;99.10;;;;;;6194269;23;20028;-74
2022/09/10 14:25:41;;;;;;;2.60;0.63;;;18.00;99.90;;;;;;6193494;23;20017;-76
2022/09/10 14:28:14;;;;;;;2.97;0.50;;;17.80;99.90;;;;;;6192463;23;20008;-74
2022/09/10 14:30:41;;;;;;;4.50;0.63;;;17.80;99.90;;;;;;6193316;23;20008;-75
2022/09/10 14:33:33;;;;;;;1.52;0.30;;;18.00;99.90;;;;;;6194238;23;19989;-76
2022/09/10 14:36:27;;;;;;;2.88;0.52;;;18.30;99.90;;;;;;6193515;23;20015;-74
2022/09/10 14:39:15;;;;;;;2.92;0.40;;;18.50;99.90;;;;;;6193315;23;20008;-73
2022/09/10 14:41:42;;;;;;;3.13;0.57;;;18.60;99.90;;;;;;6193726;23;20283;-75
2022/09/10 14:44:27;;;;;;;2.38;0.70;;;18.80;99.90;;;;;;6194029;23;20068;-74
2022/09/10 14:47:09;;;;;;;2.80;0.65;;;18.90;99.90;;;;;;6191425;23;20005;-74
2022/09/10 14:49:37;;;;;;;2.45;0.73;;;19.10;99.90;;;;;;6202719;23;20012;-74
2022/09/10 14:52:05;;;;;;;2.25;0.50;;;19.50;99.90;;;;;;6220844;23;20005;-74
2022/09/10 14:54:32;;;;;;;1.57;0.40;;;20.60;99.90;;;;;;6222863;23;20004;-75
2022/09/10 14:57:12;;;;;;;2.17;0.30;;;22.40;96.50;;;;;;6220844;23;20761;-74
2022/09/10 14:59:41;;;;;;;2.88;0.60;;;24.40;92.50;;;;;;6222792;23;20004;-74
2022/09/10 15:02:18;;;;;;;2.70;0.63;;;26.50;87.10;;;;;;6221507;23;20055;-73
2022/09/10 15:04:44;;;;;;;1.40;0.30;;;26.90;82.10;;;;;;6221625;23;20054;-74
2022/09/10 15:07:10;;;;;;;2.13;0.38;;;26.80;82.40;;;;;;6221990;23;20008;-73
2022/09/10 15:09:36;;;;;;;1.77;0.30;;;26.70;81.60;;;;;;6222596;23;20057;-73
2022/09/10 15:12:12;;;;;;;2.40;0.50;;;25.70;81.20;;;;;;6220512;23;20000;-76
2022/09/10 15:14:38;;;;;;;3.05;0.65;;;25.80;82.90;;;;;;6222572;23;20051;-74
2022/09/10 15:17:04;;;;;;;2.83;0.70;;;26.70;80.80;;;;;;6222478;23;19996;-73
2022/09/10 15:19:30;;;;;;;1.73;0.47;;;26.90;80.80;;;;;;6222471;23;20001;-73
2022/09/10 15:21:57;;;;;;;2.33;0.47;;;26.30;81.50;;;;;;6221878;23;20322;-73
2022/09/10 15:24:23;;;;;;;1.58;0.47;;;25.30;84.70;;;;;;6222403;23;20000;-73
2022/09/10 15:26:49;;;;;;;2.10;0.57;;;24.50;87.80;;;;;;6220556;23;20028;-76
2022/09/10 15:29:16;;;;;;;1.60;0.50;;;23.80;90.20;;;;;;6222430;23;20294;-73
2022/09/10 15:31:42;;;;;;;2.67;0.50;;;23.10;91.20;;;;;;6222702;23;20116;-73
2022/09/10 15:34:09;;;;;;;3.58;0.50;;;22.50;91.60;;;;;;6220593;23;20005;-74
2022/09/10 15:36:37;;;;;;;1.20;0.32;;;21.80;93.40;;;;;;6221595;23;20068;-73
2022/09/10 15:39:04;;;;;;;1.95;0.50;;;21.30;95.50;;;;;;6221784;23;20558;-72
2022/09/10 15:41:30;;;;;;;2.35;0.60;;;20.70;97.50;;;;;;6224453;23;20001;-73
2022/09/10 15:43:56;;;;;;;2.85;0.63;;;19.90;99.90;;;;;;6222697;23;20043;-74
2022/09/10 15:46:25;;;;;;;3.30;0.60;;;19.40;99.90;;;;;;6224441;23;20040;-73
2022/09/10 15:48:52;;;;;;;4.35;0.70;;;18.90;99.90;;;;;;6224017;23;20008;-75
2022/09/10 15:51:21;;;;;;;3.33;0.98;;;18.70;99.90;;;;;;6224700;23;20068;-73
2022/09/10 15:53:52;;;;;;;3.05;0.80;;;18.30;99.90;;;;;;6224058;23;20005;-74
2022/09/10 15:56:19;;;;;;;3.47;0.85;;;17.50;99.90;;;;;;6224811;23;20061;-73
2022/09/10 15:58:53;;;;;;;5.63;1.30;;;16.90;99.90;;;;;;6224142;23;20065;-74
2022/09/10 16:01:20;;;;;;;3.83;1.00;;;16.50;99.90;;;;;;6224647;23;20008;-71
2022/09/10 16:03:54;;;;;;;4.57;1.42;;;16.50;99.90;;;;;;6223999;23;20009;-71
2022/09/10 16:06:22;;;;;;;2.88;0.80;;;16.50;99.90;;;;;;6223846;23;20005;-71
2022/09/10 16:08:56;;;;;;;5.00;1.35;;;16.40;99.90;;;;;;6222693;23;20005;-70
2022/09/10 16:11:23;;;;;;;3.47;1.20;;;16.40;99.90;;;;;;6224377;23;20060;-71
2022/09/10 16:13:49;;;;;;;3.53;1.25;;;16.40;99.90;;;;;;6223672;23;20198;-72
2022/09/10 16:16:18;;;;;;;4.47;1.60;;;16.60;99.90;;;;;;6224139;23;20004;-72
2022/09/10 16:18:44;;;;;;;4.53;1.67;;;16.80;99.90;;;;;;6223186;23;20044;-73
2022/09/10 16:21:14;;;;;;;2.67;1.02;;;16.90;99.90;;;;;;6223357;23;20103;-71
2022/09/10 16:23:41;;;;;;;3.78;1.23;;;17.00;99.90;;;;;;6223196;23;20243;-72
2022/09/10 16:26:09;;;;;;;2.45;1.00;;;17.60;99.90;;;;;;6223632;23;19996;-72
2022/09/10 16:28:36;;;;;;;5.47;1.90;;;19.70;99.90;;;;;;6224259;23;20016;-75
2022/09/10 16:31:24;;;;;;;4.30;1.40;;;21.30;99.90;;;;;;6223539;23;20198;-71
2022/09/10 16:33:52;;;;;;;3.53;1.20;;;21.40;99.90;;;;;;6223418;23;20024;-73
2022/09/10 16:36:19;;;;;;;3.17;0.70;;;20.80;99.90;;;;;;6224275;23;20008;-74
2022/09/10 16:38:49;;;;;;;2.97;0.70;;;20.60;99.90;;;;;;6224001;23;20291;-74
2022/09/10 16:41:16;;;;;;;1.85;0.50;;;21.00;99.90;;;;;;6222942;23;20052;-72
2022/09/10 16:43:42;;;;;;;2.15;0.50;;;22.00;98.20;;;;;;6224029;23;20005;-72
2022/09/10 16:46:10;;;;;;;2.47;0.68;;;23.20;95.80;;;;;;6220995;23;20102;-73
2022/09/10 16:48:38;;;;;;;2.30;0.50;;;23.40;94.20;;;;;;6223835;23;20001;-73
2022/09/10 16:51:06;;;;;;;3.50;0.70;;;22.80;94.00;;;;;;6222765;23;20005;-71
2022/09/10 16:53:35;;;;;;;4.07;1.00;;;22.50;95.20;;;;;;6223595;23;20058;-73
2022/09/10 16:56:04;;;;;;;2.55;0.85;;;21.70;95.40;;;;;;6223195;23;19993;-73
2022/09/10 16:58:30;;;;;;;2.72;0.90;;;21.00;96.20;;;;;;6223685;23;20007;-75
2022/09/10 17:00:57;;;;;;;3.60;0.73;;;20.30;98.50;;;;;;6223421;23;20044;-73
2022/09/10 17:03:28;;;;;;;3.17;0.70;;;19.70;99.20;;;;;;6223464;23;20012;-75
2022/09/10 17:05:58;;;;;;;3.38;0.90;;;19.20;99.90;;;;;;6223460;23;20007;-73
2022/09/10 17:08:26;;;;;;;2.50;0.90;;;19.10;99.90;;;;;;6224038;23;20257;-75
2022/09/10 17:10:52;;;;;;;4.53;1.27;;;19.00;99.90;;;;;;6223418;23;20021;-74
2022/09/10 17:13:18;;;;;;;2.58;1.20;;;18.90;99.90;;;;;;6223887;23;20060;-74
2022/09/10 17:15:45;;;;;;;4.47;1.13;;;18.80;99.90;;;;;;6223157;23;20005;-73
2022/09/10 17:18:11;;;;;;;5.30;1.38;;;18.70;99.90;;;;;;6223169;23;20011;-73
2022/09/10 17:20:40;;;;;;;4.40;1.30;;;18.60;99.90;;;;;;6222807;23;20032;-74
2022/09/10 17:23:07;;;;;;;2.75;1.10;;;18.50;99.90;;;;;;6220951;23;20233;-74
2022/09/10 17:25:33;;;;;;;4.18;1.27;;;18.30;99.90;;;;;;6223753;23;20029;-74
2022/09/10 17:28:00;;;;;;;3.05;0.90;;;18.10;99.90;;;;;;6223029;23;20283;-73
2022/09/10 17:30:26;;;;;;;4.30;1.45;;;17.90;99.90;;;;;;6223321;23;20000;-74
2022/09/10 17:32:51;;;;;;;5.35;1.50;;;17.80;99.90;;;;;;6222596;23;20074;-75
2022/09/10 17:35:17;;;;;;;4.13;1.20;;;17.80;99.90;;;;;;6221897;23;20294;-71
2022/09/10 17:37:44;;;;;;;3.38;1.20;;;17.70;99.90;;;;;;6223622;23;20011;-74
2022/09/10 17:40:10;;;;;;;4.10;0.98;;;17.60;99.90;;;;;;6223290;23;20028;-74
2022/09/10 17:42:36;;;;;;;4.50;2.30;;;17.60;99.90;;;;;;6223047;23;20001;-73
2022/09/10 17:45:03;;;;;;;4.25;1.48;;;17.60;99.90;;;;;;6222694;23;20004;-74
2022/09/10 17:47:30;;;;;;;5.57;1.40;;;17.60;99.90;;;;;;6223685;23;20000;-74
2022/09/10 17:49:57;;;;;;;3.03;1.60;;;17.60;99.90;;;;;;6222944;23;20032;-73
2022/09/10 17:52:29;;;;;;;3.30;1.17;;;17.60;99.90;;;;;;6223024;23;19996;-71
2022/09/10 17:54:56;;;;;;;3.15;1.15;;;17.60;99.90;;;;;;6196051;23;20248;-75
2022/09/10 17:57:22;;;;;;;4.22;1.73;;;17.50;99.90;;;;;;6196070;23;20015;-73
2022/09/10 17:59:48;;;;;;;4.05;1.55;;;17.40;99.90;;;;;;6196879;23;19993;-74
2022/09/10 18:02:15;;;;;;;4.07;1.30;;;17.40;99.90;;;;;;6196022;23;20028;-74
2022/09/10 18:04:42;;;;;;;4.30;1.80;;;17.40;99.90;;;;;;6196926;23;20032;-73
2022/09/10 18:07:11;;;;;;;4.15;1.40;;;17.40;99.90;;;;;;6196229;23;20012;-73
2022/09/10 18:09:37;;;;;;;5.72;1.83;;;17.40;99.90;;;;;;6196863;23;20071;-73
2022/09/10 18:12:03;;;;;;;4.70;1.77;;;17.40;99.90;;;;;;6196448;23;20051;-73
2022/09/10 18:14:32;;;;;;;4.28;1.60;;;17.30;99.90;;;;;;6222325;23;20015;-72
2022/09/10 18:16:58;;;;;;;4.30;1.40;;;17.20;99.90;;;;;;6196304;23;20004;-73
2022/09/10 18:19:24;;;;;;;3.97;1.58;;;17.20;99.90;;;;;;6196584;23;20077;-74
2022/09/10 18:21:50;;;;;;;3.92;1.50;;;17.20;99.90;;;;;;6196846;23;20075;-73